createdAt,value
2018-12-01T00:01:43.827Z,78.58
2018-12-01T00:04:13.507Z,77.88
2018-12-01T00:06:43.776Z,77.32
2018-12-01T00:09:13.502Z,77.22
2018-12-01T00:11:43.336Z,77.34
2018-12-01T00:14:12.981Z,77.01
2018-12-01T00:16:42.722Z,75.91
2018-12-01T00:19:12.426Z,75.47
2018-12-01T00:21:42.052Z,74.69
2018-12-01T00:24:11.819Z,76.12
2018-12-01T00:26:41.471Z,76.40
2018-12-01T00:29:11.436Z,77.23
2018-12-01T00:31:41.134Z,78.37
2018-12-01T00:34:10.810Z,76.84
2018-12-01T00:36:40.416Z,76.28
2018-12-01T00:39:10.144Z,75.58
2018-12-01T00:41:40.093Z,76.01
2018-12-01T00:44:09.803Z,75.79
2018-12-01T00:46:39.642Z,76.18
2018-12-01T00:49:09.398Z,76.90
2018-12-01T00:51:38.987Z,75.56
2018-12-01T00:54:08.813Z,75.16
2018-12-01T00:56:38.703Z,74.49
2018-12-01T00:59:08.369Z,75.51
2018-12-01T01:01:37.994Z,75.83
2018-12-01T01:04:07.901Z,75.87
2018-12-01T01:06:37.517Z,74.62
2018-12-01T01:09:08.242Z,75.02
2018-12-01T01:11:37.929Z,75.57
2018-12-01T01:14:07.706Z,75.40
2018-12-01T01:16:37.508Z,75.25
2018-12-01T01:19:07.170Z,74.51
2018-12-01T01:21:36.866Z,75.08
2018-12-01T01:24:07.050Z,75.82
2018-12-01T01:26:37.659Z,74.82
2018-12-01T01:29:07.978Z,75.64
2018-12-01T01:31:38.074Z,76.07
2018-12-01T01:34:07.818Z,76.67
2018-12-01T01:36:37.597Z,76.78
2018-12-01T01:39:08.661Z,76.86
2018-12-01T01:41:38.719Z,76.08
2018-12-01T01:44:08.246Z,75.79
2018-12-01T01:46:38.662Z,75.97
2018-12-01T01:49:09.131Z,75.75
2018-12-01T01:51:39.461Z,75.21
2018-12-01T01:54:09.538Z,76.62
2018-12-01T01:56:39.708Z,76.53
2018-12-01T01:59:09.844Z,77.84
2018-12-01T02:01:40.118Z,77.74
2018-12-01T02:04:10.412Z,77.22
2018-12-01T02:06:40.152Z,77.59
2018-12-01T02:09:09.914Z,77.07
2018-12-01T02:11:39.666Z,77.58
2018-12-01T02:14:09.370Z,78.07
2018-12-01T02:16:39.075Z,77.40
2018-12-01T02:19:08.906Z,77.67
2018-12-01T02:21:38.705Z,77.27
2018-12-01T02:24:10.156Z,76.88
2018-12-01T02:26:39.967Z,76.99
2018-12-01T02:29:09.710Z,77.12
2018-12-01T02:31:39.477Z,77.44
2018-12-01T02:34:09.215Z,76.95
2018-12-01T02:36:39.045Z,77.03
2018-12-01T02:39:10.759Z,76.57
2018-12-01T02:41:40.433Z,76.81
2018-12-01T02:44:21.159Z,76.27
2018-12-01T02:47:02.628Z,75.91
2018-12-01T02:49:32.364Z,76.21
2018-12-01T02:52:02.114Z,76.53
2018-12-01T02:54:31.858Z,76.34
2018-12-01T02:57:01.578Z,76.25
2018-12-01T02:59:31.365Z,76.38
2018-12-01T03:02:01.522Z,75.94
2018-12-01T03:04:31.449Z,76.65
2018-12-01T03:07:01.568Z,76.17
2018-12-01T03:09:31.986Z,76.14
2018-12-01T03:12:02.498Z,76.23
2018-12-01T03:14:33.485Z,75.99
2018-12-01T03:17:03.659Z,76.35
2018-12-01T03:19:33.863Z,76.55
2018-12-01T03:22:04.245Z,77.67
2018-12-01T03:24:34.366Z,78.32
2018-12-01T03:27:04.429Z,78.26
2018-12-01T03:29:34.272Z,77.09
2018-12-01T03:32:04.053Z,76.19
2018-12-01T03:34:34.175Z,76.07
2018-12-01T03:37:04.577Z,75.84
2018-12-01T03:39:35.089Z,75.35
2018-12-01T03:42:07.465Z,75.61
2018-12-01T03:44:37.772Z,75.38
2018-12-01T03:47:08.019Z,75.41
2018-12-01T03:49:38.555Z,75.67
2018-12-01T03:52:08.657Z,74.01
2018-12-01T03:54:39.164Z,74.26
2018-12-01T03:57:08.940Z,73.80
2018-12-01T03:59:38.686Z,73.19
2018-12-01T04:02:08.765Z,72.69
2018-12-01T04:04:39.234Z,72.56
2018-12-01T04:07:09.605Z,73.44
2018-12-01T04:09:39.699Z,73.57
2018-12-01T04:12:10.323Z,73.69
2018-12-01T04:14:40.669Z,74.15
2018-12-01T04:17:11.212Z,74.21
2018-12-01T04:19:42.153Z,73.78
2018-12-01T04:22:12.473Z,74.68
2018-12-01T04:24:42.536Z,74.98
2018-12-01T04:27:12.729Z,74.99
2018-12-01T04:29:42.878Z,75.12
2018-12-01T04:32:13.982Z,75.43
2018-12-01T04:34:44.304Z,74.48
2018-12-01T04:37:14.478Z,73.53
2018-12-01T04:39:44.734Z,73.88
2018-12-01T04:42:14.814Z,73.65
2018-12-01T04:44:45.279Z,73.27
2018-12-01T04:47:15.153Z,73.82
2018-12-01T04:49:45.348Z,78.38
2018-12-01T04:52:15.378Z,76.86
2018-12-01T04:54:45.760Z,74.99
2018-12-01T04:57:15.994Z,73.90
2018-12-01T04:59:47.087Z,73.07
2018-12-01T05:02:17.450Z,73.35
2018-12-01T05:04:47.587Z,74.33
2018-12-01T05:07:17.772Z,75.24
2018-12-01T05:09:47.665Z,74.93
2018-12-01T05:12:17.895Z,75.02
2018-12-01T05:14:47.987Z,74.85
2018-12-01T05:17:17.815Z,74.43
2018-12-01T05:19:47.500Z,74.33
2018-12-01T05:22:17.139Z,73.72
2018-12-01T05:24:47.589Z,73.24
2018-12-01T05:27:17.783Z,72.71
2018-12-01T05:29:47.522Z,73.48
2018-12-01T05:32:17.260Z,73.78
2018-12-01T05:34:46.956Z,74.60
2018-12-01T05:37:16.651Z,72.77
2018-12-01T05:39:46.372Z,71.66
2018-12-01T05:42:16.174Z,71.48
2018-12-01T05:44:45.916Z,71.55
2018-12-01T05:47:15.668Z,71.87
2018-12-01T05:49:45.288Z,71.91
2018-12-01T05:52:15.119Z,71.50
2018-12-01T05:54:44.890Z,71.66
2018-12-01T05:57:14.709Z,71.50
2018-12-01T05:59:44.372Z,70.95
2018-12-01T06:02:14.243Z,70.74
2018-12-01T06:04:43.929Z,69.59
2018-12-01T06:07:14.365Z,69.66
2018-12-01T06:09:44.944Z,70.16
2018-12-01T06:12:15.231Z,70.42
2018-12-01T06:14:45.302Z,71.08
2018-12-01T06:17:15.148Z,71.97
2018-12-01T06:19:44.942Z,70.87
2018-12-01T06:22:15.076Z,69.47
2018-12-01T06:24:45.403Z,69.16
2018-12-01T06:27:15.348Z,68.60
2018-12-01T06:29:45.462Z,68.66
2018-12-01T06:32:16.119Z,69.44
2018-12-01T06:34:46.003Z,69.36
2018-12-01T06:37:16.746Z,69.32
2018-12-01T06:39:46.610Z,69.21
2018-12-01T06:42:16.487Z,67.92
2018-12-01T06:44:46.262Z,67.62
2018-12-01T06:47:16.071Z,66.88
2018-12-01T06:49:45.905Z,66.27
2018-12-01T06:52:16.140Z,65.99
2018-12-01T06:54:46.590Z,66.00
2018-12-01T06:57:17.187Z,65.74
2018-12-01T06:59:47.279Z,64.89
2018-12-01T07:02:17.702Z,64.88
2018-12-01T07:04:47.445Z,62.77
2018-12-01T07:07:17.814Z,62.10
2018-12-01T07:09:47.596Z,60.41
2018-12-01T07:12:17.239Z,58.74
2018-12-01T07:14:47.137Z,57.90
2018-12-01T07:17:17.033Z,60.99
2018-12-01T07:19:46.868Z,60.21
2018-12-01T07:22:16.691Z,59.06
2018-12-01T07:24:46.539Z,58.43
2018-12-01T07:27:16.282Z,57.26
2018-12-01T07:29:46.400Z,56.29
2018-12-01T07:32:16.528Z,55.91
2018-12-01T07:34:46.883Z,56.08
2018-12-01T07:37:17.117Z,56.16
2018-12-01T07:39:49.779Z,56.49
2018-12-01T07:42:20.250Z,56.55
2018-12-01T07:44:49.972Z,57.25
2018-12-01T07:48:22.845Z,53.61
2018-12-01T07:50:52.572Z,53.67
2018-12-01T07:53:22.717Z,53.95
2018-12-01T07:55:52.457Z,55.52
2018-12-01T07:58:22.231Z,56.84
2018-12-01T08:00:52.017Z,53.68
2018-12-01T08:03:22.220Z,54.47
2018-12-01T08:05:52.257Z,53.60
2018-12-01T08:08:22.013Z,53.94
2018-12-01T08:10:52.141Z,52.79
2018-12-01T08:13:21.946Z,51.85
2018-12-01T08:15:51.729Z,51.30
2018-12-01T08:18:21.493Z,51.31
2018-12-01T08:20:51.357Z,51.78
2018-12-01T08:23:21.298Z,53.71
2018-12-01T08:25:51.117Z,53.02
2018-12-01T08:28:23.194Z,52.25
2018-12-01T08:30:53.998Z,51.96
2018-12-01T08:33:23.870Z,51.12
2018-12-01T08:35:53.587Z,51.41
2018-12-01T08:38:23.401Z,50.72
2018-12-01T08:40:53.170Z,50.23
2018-12-01T08:43:23.101Z,50.09
2018-12-01T08:45:52.940Z,49.87
2018-12-01T08:48:22.885Z,49.93
2018-12-01T08:50:56.700Z,49.83
2018-12-01T08:53:26.835Z,49.06
2018-12-01T08:55:56.689Z,49.01
2018-12-01T08:58:26.512Z,49.25
2018-12-01T09:00:56.499Z,49.91
2018-12-01T09:03:26.227Z,48.29
2018-12-01T09:05:56.674Z,50.25
2018-12-01T09:08:26.510Z,48.74
2018-12-01T09:10:56.202Z,47.72
2018-12-01T09:13:26.908Z,47.77
2018-12-01T09:15:57.707Z,46.67
2018-12-01T09:18:27.494Z,47.40
2018-12-01T09:20:57.238Z,49.58
2018-12-01T09:23:27.483Z,47.85
2018-12-01T09:25:57.293Z,48.58
2018-12-01T09:28:26.879Z,50.27
2018-12-01T09:30:56.720Z,52.03
2018-12-01T09:33:26.458Z,52.48
2018-12-01T09:35:56.244Z,53.21
2018-12-01T09:38:26.027Z,51.48
2018-12-01T09:40:55.863Z,50.96
2018-12-01T09:43:25.692Z,50.37
2018-12-01T09:45:55.497Z,50.35
2018-12-01T09:48:26.049Z,49.14
2018-12-01T09:50:58.197Z,49.09
2018-12-01T09:53:28.542Z,48.30
2018-12-01T09:55:58.572Z,46.69
2018-12-01T10:03:19.067Z,42.67
2018-12-01T10:05:48.946Z,41.77
2018-12-01T10:08:18.692Z,43.01
2018-12-01T10:10:48.507Z,44.46
2018-12-01T10:13:18.395Z,45.26
2018-12-01T10:15:48.581Z,46.44
2018-12-01T10:18:19.856Z,49.54
2018-12-01T10:20:51.512Z,49.92
2018-12-01T10:23:30.166Z,51.86
2018-12-01T10:26:02.634Z,53.14
2018-12-01T10:28:33.909Z,54.96
2018-12-01T10:31:06.559Z,54.15
2018-12-01T10:33:37.995Z,55.12
2018-12-01T10:36:09.854Z,56.21
2018-12-01T10:38:41.189Z,55.50
2018-12-01T10:41:12.680Z,55.86
2018-12-01T10:43:44.794Z,55.03
2018-12-01T10:46:17.511Z,55.64
2018-12-01T10:48:49.023Z,56.37
2018-12-01T10:51:20.615Z,55.61
2018-12-01T11:31:58.640Z,59.21
2018-12-01T11:34:28.342Z,60.64
2018-12-01T11:36:59.652Z,60.66
2018-12-01T11:39:29.330Z,61.01
2018-12-01T11:41:59.071Z,60.29
2018-12-01T11:44:29.014Z,59.90
2018-12-01T11:46:58.834Z,59.26
2018-12-01T11:49:28.885Z,59.83
2018-12-01T11:51:58.583Z,60.41
2018-12-01T11:54:28.417Z,60.69
2018-12-01T11:56:58.498Z,61.17
2018-12-01T11:59:28.338Z,60.87
2018-12-01T12:02:00.491Z,61.43
2018-12-01T12:04:28.355Z,61.54
2018-12-01T12:06:58.235Z,61.81
2018-12-01T12:09:27.930Z,61.68
2018-12-01T12:11:57.611Z,60.90
2018-12-01T12:14:27.433Z,61.27
2018-12-01T12:16:57.268Z,60.61
2018-12-01T12:19:27.247Z,60.68
2018-12-01T12:21:57.250Z,60.24
2018-12-01T12:24:27.214Z,60.31
2018-12-01T12:26:56.986Z,60.24
2018-12-01T12:29:26.809Z,60.70
2018-12-01T12:32:00.667Z,60.27
2018-12-01T12:34:30.494Z,60.31
2018-12-01T12:37:00.267Z,59.69
2018-12-01T12:39:29.937Z,59.27
2018-12-01T12:41:59.619Z,59.89
2018-12-01T12:44:29.470Z,60.90
2018-12-01T12:46:59.338Z,60.18
2018-12-01T12:49:29.268Z,58.47
2018-12-01T12:51:59.091Z,57.90
2018-12-01T12:54:29.237Z,58.23
2018-12-01T12:56:59.258Z,58.90
2018-12-01T12:59:29.037Z,58.60
2018-12-01T13:01:58.756Z,58.34
2018-12-01T13:04:28.522Z,58.29
2018-12-01T13:06:58.220Z,58.69
2018-12-01T13:09:28.011Z,59.13
2018-12-01T13:11:57.801Z,59.72
2018-12-01T13:14:27.473Z,60.03
2018-12-01T13:16:57.306Z,60.17
2018-12-01T13:19:27.006Z,61.05
2018-12-01T13:23:26.732Z,61.09
2018-12-01T13:25:56.375Z,62.03
2018-12-01T13:28:26.569Z,62.59
2018-12-01T13:30:59.423Z,62.82
2018-12-01T13:33:30.470Z,62.88
2018-12-01T13:36:00.238Z,62.70
2018-12-01T13:38:30.078Z,63.22
2018-12-01T13:41:00.310Z,62.96
2018-12-01T13:43:30.125Z,63.25
2018-12-01T13:45:59.883Z,63.24
2018-12-01T13:48:29.740Z,63.71
2018-12-01T13:50:59.609Z,63.84
2018-12-01T13:53:30.208Z,64.37
2018-12-01T13:55:59.826Z,64.16
2018-12-01T13:58:29.527Z,63.80
2018-12-01T14:00:59.179Z,64.03
2018-12-01T14:03:28.795Z,65.44
2018-12-01T14:05:58.614Z,65.18
2018-12-01T14:08:28.334Z,65.17
2018-12-01T14:10:58.087Z,65.17
2018-12-01T14:13:33.708Z,65.53
2018-12-01T14:16:03.733Z,65.20
2018-12-01T14:18:33.477Z,65.14
2018-12-01T14:21:03.251Z,65.82
2018-12-01T14:23:33.278Z,65.77
2018-12-01T14:26:03.106Z,65.72
2018-12-01T14:28:32.906Z,66.61
2018-12-01T14:31:02.659Z,67.36
2018-12-01T14:33:32.949Z,67.44
2018-12-01T14:36:03.006Z,67.41
2018-12-01T14:38:32.751Z,68.26
2018-12-01T14:41:02.564Z,68.34
2018-12-01T14:43:32.290Z,68.34
2018-12-01T14:46:02.011Z,69.03
2018-12-01T14:48:31.751Z,69.82
2018-12-01T14:51:01.660Z,69.84
2018-12-01T14:53:31.525Z,70.95
2018-12-01T14:56:01.290Z,71.43
2018-12-01T14:58:31.188Z,71.19
2018-12-01T15:01:00.849Z,71.39
2018-12-01T15:03:30.925Z,71.39
2018-12-01T15:06:00.594Z,71.53
2018-12-01T15:08:30.383Z,72.05
2018-12-01T15:11:00.603Z,72.31
2018-12-01T15:13:30.328Z,73.23
2018-12-01T15:16:00.003Z,72.99
2018-12-01T15:18:29.674Z,73.23
2018-12-01T15:20:59.480Z,73.33
2018-12-01T15:23:30.087Z,73.29
2018-12-01T15:26:00.735Z,73.64
2018-12-01T15:28:31.056Z,72.95
2018-12-01T15:31:00.889Z,72.82
2018-12-01T15:33:30.474Z,72.48
2018-12-01T15:36:00.156Z,72.37
2018-12-01T15:38:29.939Z,72.12
2018-12-01T15:40:59.762Z,72.04
2018-12-01T15:43:29.502Z,71.18
2018-12-01T15:45:59.446Z,71.55
2018-12-01T15:48:30.162Z,71.15
2018-12-01T15:51:00.086Z,71.87
2018-12-01T15:53:29.956Z,72.58
2018-12-01T15:55:59.745Z,72.00
2018-12-01T15:58:30.286Z,72.48
2018-12-01T16:01:00.070Z,72.95
2018-12-01T16:03:29.954Z,73.24
2018-12-01T16:05:59.906Z,73.75
2018-12-01T16:08:29.940Z,74.65
2018-12-01T16:10:59.606Z,76.14
2018-12-01T16:13:29.734Z,76.37
2018-12-01T16:16:10.463Z,76.21
2018-12-01T16:18:40.457Z,75.80
2018-12-01T16:21:10.155Z,75.91
2018-12-01T16:23:40.042Z,76.89
2018-12-01T16:26:09.819Z,77.58
2018-12-01T16:28:39.809Z,77.32
2018-12-01T16:31:09.857Z,77.35
2018-12-01T16:33:39.673Z,77.70
2018-12-01T16:36:09.622Z,78.05
2018-12-01T16:38:39.525Z,78.65
2018-12-01T16:41:28.894Z,78.25
2018-12-01T16:43:59.563Z,79.11
2018-12-01T16:46:33.107Z,79.10
2018-12-01T16:49:03.113Z,79.80
2018-12-01T16:51:32.894Z,80.46
2018-12-01T16:54:03.122Z,80.02
2018-12-01T16:56:34.044Z,80.01
2018-12-01T16:59:04.019Z,79.82
2018-12-01T17:01:34.849Z,80.03
2018-12-01T17:04:04.761Z,81.31
2018-12-01T17:06:34.708Z,82.47
2018-12-01T17:09:05.530Z,81.72
2018-12-01T17:11:35.601Z,81.05
2018-12-01T17:14:05.735Z,81.10
2018-12-01T17:16:36.077Z,81.76
2018-12-01T17:19:06.147Z,81.47
2018-12-01T17:21:36.183Z,81.71
2018-12-01T17:24:06.847Z,81.51
2018-12-01T17:26:36.992Z,81.30
2018-12-01T17:29:07.513Z,81.72
2018-12-01T17:31:37.426Z,81.71
2018-12-01T17:34:08.815Z,82.06
2018-12-01T17:36:38.714Z,82.50
2018-12-01T17:39:10.567Z,83.05
2018-12-01T17:41:40.378Z,83.41
2018-12-01T17:44:11.486Z,83.26
2018-12-01T17:46:41.569Z,83.73
2018-12-01T17:49:11.526Z,84.69
2018-12-01T17:51:41.567Z,84.45
2018-12-01T17:54:13.940Z,84.37
2018-12-01T17:56:46.285Z,84.36
2018-12-01T17:59:16.144Z,84.54
2018-12-01T18:01:46.285Z,84.54
2018-12-01T18:04:16.152Z,84.80
2018-12-01T18:06:45.934Z,85.82
2018-12-01T18:09:29.990Z,84.68
2018-12-01T18:12:00.239Z,84.24
2018-12-01T18:14:29.959Z,83.85
2018-12-01T18:16:59.764Z,84.19
2018-12-01T18:19:29.944Z,84.56
2018-12-01T18:22:00.228Z,84.92
2018-12-01T18:24:31.158Z,85.43
2018-12-01T18:27:00.950Z,85.32
2018-12-01T18:29:31.003Z,86.06
2018-12-01T18:32:01.755Z,86.77
2018-12-01T18:34:31.545Z,86.29
2018-12-01T18:37:01.634Z,86.46
2018-12-01T18:39:31.263Z,87.09
2018-12-01T18:42:00.925Z,87.39
2018-12-01T18:44:30.579Z,87.17
2018-12-01T18:47:00.304Z,86.46
2018-12-01T18:49:29.904Z,86.55
2018-12-01T18:51:59.925Z,86.02
2018-12-01T18:54:30.908Z,85.06
2018-12-01T18:57:01.947Z,85.16
2018-12-01T18:59:30.485Z,84.29
2018-12-01T19:02:00.161Z,83.34
2018-12-01T19:04:30.175Z,82.66
2018-12-01T19:06:59.932Z,82.34
2018-12-01T19:09:29.787Z,81.98
2018-12-01T19:12:06.153Z,82.13
2018-12-01T19:14:35.987Z,81.30
2018-12-01T19:17:06.202Z,81.73
2018-12-01T19:19:36.162Z,81.21
2018-12-01T19:22:06.381Z,80.05
2018-12-01T19:24:36.198Z,79.12
2018-12-01T19:27:06.406Z,79.60
2018-12-01T19:29:36.290Z,78.92
2018-12-01T19:32:06.387Z,77.96
2018-12-01T19:34:36.094Z,77.67
2018-12-01T19:37:05.919Z,77.49
2018-12-01T19:39:36.575Z,77.26
2018-12-01T19:42:06.396Z,76.59
2018-12-01T19:44:36.089Z,76.68
2018-12-01T19:47:06.009Z,75.81
2018-12-01T19:49:35.719Z,76.07
2018-12-01T19:52:05.747Z,75.47
2018-12-01T19:54:35.522Z,75.15
2018-12-01T19:57:05.379Z,76.26
2018-12-01T19:59:36.009Z,76.70
2018-12-01T20:02:06.596Z,76.26
2018-12-01T20:04:36.641Z,76.79
2018-12-01T20:07:07.271Z,76.80
2018-12-01T20:09:38.096Z,76.37
2018-12-01T20:12:09.342Z,77.56
2018-12-01T20:14:39.138Z,77.16
2018-12-01T20:17:10.172Z,77.70
2018-12-01T20:19:40.007Z,77.77
2018-12-01T20:24:41.656Z,78.18
2018-12-01T20:27:11.579Z,77.98
2018-12-01T20:29:41.438Z,77.95
2018-12-01T20:32:13.229Z,77.54
2018-12-01T20:34:43.094Z,77.76
2018-12-01T20:37:17.793Z,77.57
2018-12-01T20:39:47.660Z,77.54
2018-12-01T20:42:17.373Z,76.76
2018-12-01T20:44:47.371Z,75.63
2018-12-01T20:47:17.990Z,75.64
2018-12-01T20:49:47.684Z,75.97
2018-12-01T20:52:17.500Z,76.79
2018-12-01T20:54:47.937Z,76.96
2018-12-01T20:57:20.559Z,76.04
2018-12-01T20:59:50.272Z,75.75
2018-12-01T21:02:20.232Z,75.83
2018-12-01T21:04:52.231Z,74.62
2018-12-01T21:07:22.080Z,74.46
2018-12-01T21:09:51.901Z,75.33
2018-12-01T21:12:21.795Z,74.68
2018-12-01T21:14:51.764Z,75.56
2018-12-01T21:17:22.010Z,76.72
2018-12-01T21:19:55.564Z,77.41
2018-12-01T21:22:25.883Z,77.96
2018-12-01T21:24:57.014Z,79.18
2018-12-01T21:27:27.860Z,78.60
2018-12-01T21:29:57.925Z,78.33
2018-12-01T21:32:27.927Z,77.57
2018-12-01T21:34:57.833Z,76.95
2018-12-01T21:37:27.833Z,78.25
2018-12-01T21:39:57.532Z,80.38
2018-12-01T21:42:29.808Z,79.19
2018-12-01T21:44:59.805Z,79.43
2018-12-01T21:47:29.859Z,79.83
2018-12-01T21:50:07.783Z,79.64
2018-12-01T21:52:37.719Z,80.10
2018-12-01T21:55:09.600Z,80.07
2018-12-01T21:57:39.665Z,81.05
2018-12-01T22:00:31.916Z,80.53
2018-12-01T22:03:12.389Z,80.36
2018-12-01T22:05:44.746Z,80.87
2018-12-01T22:08:16.154Z,81.67
2018-12-01T22:10:49.135Z,80.34
2018-12-01T22:13:20.251Z,79.11
2018-12-01T22:15:50.282Z,78.79
2018-12-01T22:18:20.346Z,78.72
2018-12-01T22:20:50.130Z,78.21
2018-12-01T22:23:20.565Z,78.52
2018-12-01T22:25:52.651Z,77.14
2018-12-01T22:28:23.106Z,77.74
2018-12-01T22:30:57.203Z,77.36
2018-12-01T22:33:28.482Z,76.46
2018-12-01T22:36:01.556Z,75.59
2018-12-01T22:38:33.284Z,76.17
2018-12-01T22:41:04.081Z,76.61
2018-12-01T22:43:34.291Z,76.71
2018-12-01T22:46:04.463Z,76.97
2018-12-01T22:48:34.318Z,77.69
2018-12-01T22:51:04.263Z,78.93
2018-12-01T22:53:34.361Z,78.07
2018-12-01T22:56:04.452Z,77.62
2018-12-01T22:58:34.721Z,78.00
2018-12-01T23:01:04.959Z,78.07
2018-12-01T23:03:38.017Z,78.12
2018-12-01T23:06:08.139Z,78.17
2018-12-01T23:08:38.080Z,78.31
2018-12-01T23:11:16.488Z,78.83
2018-12-01T23:13:48.355Z,78.56
2018-12-01T23:16:18.131Z,78.55
2018-12-01T23:18:48.131Z,76.38
2018-12-01T23:21:20.577Z,77.01
2018-12-01T23:23:48.132Z,76.77
2018-12-01T23:26:18.041Z,77.90
2018-12-01T23:28:48.379Z,78.30
2018-12-01T23:31:18.122Z,78.73
2018-12-01T23:33:47.881Z,79.18
2018-12-01T23:36:17.758Z,78.18
2018-12-01T23:38:48.321Z,77.62
2018-12-01T23:41:18.106Z,77.77
2018-12-01T23:43:48.123Z,77.80
2018-12-01T23:46:17.928Z,77.59
2018-12-01T23:48:47.880Z,76.58
2018-12-01T23:51:17.657Z,76.80
2018-12-01T23:53:47.406Z,77.32
2018-12-01T23:56:17.472Z,77.22
2018-12-01T23:58:47.367Z,77.37
